Time;durP1;ratioP1;P1;durP2;ratioP2;P2;SDS_P1;SDS_P2;PMS_P1;PMS_P2;Temp;Humidity;BMP_temperature;BMP_pressure;BME280_temperature;BME280_humidity;BME280_pressure;Samples;Min_cycle;Max_cycle;Signal;HPM_P1;HPM_P2
2021/12/19 00:00:15;;;;;;;2.63;1.52;;;;;;;3.70;100.00;100294.28;5053440;28;20455;-71
2021/12/19 00:08:53;;;;;;;2.97;1.70;;;;;;;3.74;100.00;100262.41;5053483;28;20041;-71
2021/12/19 00:11:37;;;;;;;2.38;1.02;;;;;;;3.78;100.00;100271.06;5053447;28;20431;-72
2021/12/19 00:14:23;;;;;;;4.85;2.47;;;;;;;3.73;100.00;100263.22;5052665;28;20355;-71
2021/12/19 00:17:07;;;;;;;2.00;1.13;;;;;;;3.78;100.00;100258.97;5053227;28;20423;-72
2021/12/19 00:19:52;;;;;;;2.17;1.40;;;;;;;3.80;100.00;100258.97;5053280;28;20040;-71
2021/12/19 00:22:36;;;;;;;0.60;0.60;;;;;;;3.80;100.00;100246.03;5053322;28;20052;-71
2021/12/19 00:25:21;;;;;;;2.25;1.30;;;;;;;3.77;100.00;100244.28;5052717;28;20041;-71
2021/12/19 00:28:06;;;;;;;4.47;2.28;;;;;;;3.83;100.00;100223.59;5053172;28;20044;-71
2021/12/19 00:30:51;;;;;;;2.50;1.38;;;;;;;3.86;100.00;100228.81;5038465;28;20350;-71
2021/12/19 00:33:37;;;;;;;3.10;0.88;;;;;;;3.83;100.00;100239.16;5053115;28;20048;-71
2021/12/19 00:36:22;;;;;;;1.38;1.02;;;;;;;3.80;100.00;100223.56;5053007;28;20037;-71
2021/12/19 00:39:06;;;;;;;1.25;1.00;;;;;;;3.82;100.00;100218.41;5052312;28;20041;-71
2021/12/19 00:41:53;;;;;;;5.47;3.20;;;;;;;3.79;100.00;100213.19;5052201;28;20041;-71
2021/12/19 00:44:38;;;;;;;2.35;1.25;;;;;;;3.88;100.00;100216.75;5052949;28;20044;-72
2021/12/19 00:47:22;;;;;;;5.35;2.70;;;;;;;3.81;100.00;100208.91;5053014;28;20037;-71
2021/12/19 00:50:07;;;;;;;6.68;2.17;;;;;;;3.89;100.00;100202.91;5052056;28;20057;-71
2021/12/19 00:52:52;;;;;;;3.17;1.67;;;;;;;3.81;100.00;100194.22;5052735;28;20037;-71
2021/12/19 00:55:37;;;;;;;2.40;1.00;;;;;;;3.85;100.00;100208.94;5052783;28;20090;-71
2021/12/19 00:58:21;;;;;;;2.03;1.58;;;;;;;3.89;100.00;100212.41;5052575;28;20049;-72
2021/12/19 01:01:07;;;;;;;1.48;1.38;;;;;;;3.92;100.00;100194.31;5052763;28;20041;-71
2021/12/19 01:03:52;;;;;;;4.75;2.20;;;;;;;3.90;100.00;100186.53;5052676;28;20124;-71
2021/12/19 01:06:39;;;;;;;2.03;1.75;;;;;;;3.99;100.00;100185.72;5052006;28;20354;-71
2021/12/19 01:09:24;;;;;;;2.67;1.85;;;;;;;3.98;100.00;100186.59;5051990;28;20045;-71
2021/12/19 01:12:10;;;;;;;1.67;1.48;;;;;;;3.98;100.00;100186.59;5052694;28;20494;-71
2021/12/19 01:14:55;;;;;;;2.40;1.52;;;;;;;3.95;100.00;100181.38;5051764;28;20052;-71
2021/12/19 01:17:40;;;;;;;1.58;1.17;;;;;;;3.97;100.00;100166.72;5055267;28;20045;-71
2021/12/19 01:20:27;;;;;;;1.80;1.45;;;;;;;4.03;100.00;100158.09;5041334;28;20052;-72
2021/12/19 01:23:12;;;;;;;1.80;1.63;;;;;;;4.07;100.00;100155.53;5055373;28;20048;-71
2021/12/19 01:25:56;;;;;;;3.25;2.28;;;;;;;4.05;100.00;100146.03;5055940;28;20044;-72
2021/12/19 01:28:42;;;;;;;8.98;6.25;;;;;;;4.02;100.00;100152.03;5055260;28;20074;-71
2021/12/19 01:31:26;;;;;;;29.10;17.10;;;;;;;4.12;100.00;100150.38;5056031;28;20060;-72
2021/12/19 01:34:12;;;;;;;7.50;5.72;;;;;;;4.09;100.00;100158.13;5055881;28;20068;-71
2021/12/19 01:36:57;;;;;;;3.80;2.78;;;;;;;4.06;100.00;100151.19;5054985;28;20400;-72
2021/12/19 01:39:41;;;;;;;3.47;2.40;;;;;;;4.14;100.00;100156.47;5055820;28;20124;-72
2021/12/19 01:42:35;;;;;;;2.35;1.77;;;;;;;4.11;100.00;100154.69;5054986;28;20086;-72
2021/12/19 01:45:35;;;;;;;1.88;1.70;;;;;;;4.16;100.00;100132.28;5055065;28;20045;-72
2021/12/19 01:48:21;;;;;;;5.35;2.13;;;;;;;4.19;100.00;100134.91;5055595;28;20434;-71
2021/12/19 01:51:06;;;;;;;3.33;1.60;;;;;;;4.12;100.00;100122.72;5055765;28;20049;-71
2021/12/19 01:53:50;;;;;;;2.13;1.73;;;;;;;4.12;100.00;100122.72;5055521;28;20041;-72
2021/12/19 01:56:34;;;;;;;3.53;2.22;;;;;;;4.19;100.00;100113.25;5054751;28;20132;-72
2021/12/19 01:59:19;;;;;;;3.58;2.28;;;;;;;4.21;100.00;100103.78;5055414;28;20057;-72
2021/12/19 02:02:04;;;;;;;3.90;2.67;;;;;;;4.14;100.00;100102.00;5055388;28;20431;-72
2021/12/19 02:04:49;;;;;;;5.65;2.70;;;;;;;4.22;100.00;100095.13;5054693;28;20041;-71
2021/12/19 02:07:33;;;;;;;5.97;2.60;;;;;;;4.21;100.00;100083.88;5054622;28;20069;-72
2021/12/19 02:10:23;;;;;;;3.22;2.35;;;;;;;4.20;100.00;100076.97;5055460;28;20045;-72
2021/12/19 02:13:09;;;;;;;3.60;2.30;;;;;;;4.21;100.00;100068.34;5054587;28;20037;-72
2021/12/19 02:15:54;;;;;;;3.08;2.53;;;;;;;4.27;100.00;100044.16;5054468;28;20037;-72
2021/12/19 02:18:38;;;;;;;5.40;2.60;;;;;;;4.22;100.00;100046.75;5054591;28;20097;-72
2021/12/19 02:21:23;;;;;;;4.35;2.50;;;;;;;4.32;100.00;100041.59;5054462;28;20056;-72
2021/12/19 02:24:09;;;;;;;4.60;2.33;;;;;;;4.32;100.00;100042.47;5054251;28;20041;-72
2021/12/19 02:26:54;;;;;;;10.00;4.20;;;;;;;4.36;100.00;100041.63;5054957;28;20066;-71
2021/12/19 02:29:38;;;;;;;5.60;2.72;;;;;;;4.29;100.00;100028.59;5054491;28;20346;-71
2021/12/19 02:32:25;;;;;;;4.68;3.17;;;;;;;4.35;100.00;100015.66;5054296;28;20041;-71
2021/12/19 02:35:15;;;;;;;5.20;2.88;;;;;;;4.30;100.00;99999.25;5054186;28;20124;-72
2021/12/19 02:50:07;;;;;;;3.83;2.85;;;;;;;4.52;100.00;99958.63;5054650;28;20064;-72
2021/12/19 02:52:53;;;;;;;6.32;3.33;;;;;;;4.48;100.00;99950.00;5039892;28;20063;-71
2021/12/19 02:55:38;;;;;;;4.50;2.78;;;;;;;4.46;100.00;99956.91;5053939;28;20045;-72
2021/12/19 02:58:22;;;;;;;6.25;3.58;;;;;;;4.44;100.00;99949.13;5053858;28;20037;-72
2021/12/19 03:01:12;;;;;;;5.22;3.60;;;;;;;4.56;100.00;99957.81;5053853;28;20045;-72
2021/12/19 03:03:57;;;;;;;7.00;3.58;;;;;;;4.57;100.00;99954.34;5054443;28;20120;-71
2021/12/19 03:06:46;;;;;;;7.32;4.47;;;;;;;4.61;100.00;99949.13;5053803;28;20098;-71
2021/12/19 03:09:50;;;;;;;8.95;4.78;;;;;;;4.52;100.00;99945.66;5039675;28;20041;-72
2021/12/19 03:18:47;;;;;;;8.23;3.60;;;;;;;4.60;100.00;99910.25;5054186;28;20041;-71
2021/12/19 03:21:31;;;;;;;9.40;4.15;;;;;;;4.64;100.00;99912.81;5054224;28;20037;-72
2021/12/19 03:24:16;;;;;;;8.25;4.43;;;;;;;4.65;100.00;99898.16;5053433;28;20113;-72
2021/12/19 03:27:00;;;;;;;7.68;4.20;;;;;;;4.61;100.00;99896.38;5053371;28;20045;-72
2021/12/19 03:29:44;;;;;;;5.47;3.45;;;;;;;4.61;100.00;99867.84;5054089;28;20045;-72
2021/12/19 03:32:28;;;;;;;7.93;4.15;;;;;;;4.69;100.00;99890.34;5054312;28;20128;-72
2021/12/19 03:35:14;;;;;;;9.15;4.18;;;;;;;4.69;100.00;99882.56;5054105;28;20052;-71
2021/12/19 03:38:01;;;;;;;6.18;3.72;;;;;;;4.74;100.00;99876.50;5053907;28;20041;-71
2021/12/19 03:40:53;;;;;;;7.65;4.20;;;;;;;4.79;100.00;99878.25;5052029;28;20045;-71
2021/12/19 03:43:37;;;;;;;6.82;4.70;;;;;;;4.85;100.00;99888.63;5053112;28;20056;-71
2021/12/19 03:46:22;;;;;;;9.55;4.40;;;;;;;4.84;100.00;99876.53;5053778;28;20095;-72
2021/12/19 03:49:06;;;;;;;12.02;4.63;;;;;;;4.76;100.00;99869.59;5053087;28;20040;-71
2021/12/19 03:51:50;;;;;;;7.82;3.92;;;;;;;4.81;100.00;99867.84;5053740;28;20041;-72
2021/12/19 03:54:34;;;;;;;5.75;3.22;;;;;;;4.84;100.00;99867.84;5052942;28;20090;-72
2021/12/19 03:57:19;;;;;;;7.55;4.15;;;;;;;4.88;100.00;99869.59;5053598;28;20033;-71
2021/12/19 04:00:06;;;;;;;7.28;3.83;;;;;;;4.89;100.00;99855.75;5053347;28;20045;-71
2021/12/19 04:02:53;;;;;;;7.57;3.95;;;;;;;4.87;100.00;99854.88;5053545;28;20044;-72
2021/12/19 04:05:42;;;;;;;7.65;3.60;;;;;;;4.90;100.00;99857.47;5053673;28;20045;-72
2021/12/19 04:08:27;;;;;;;6.22;3.38;;;;;;;4.95;100.00;99862.66;5052837;28;20041;-72
2021/12/19 04:11:11;;;;;;;10.70;3.65;;;;;;;5.05;100.00;99852.25;5052816;28;20401;-72
2021/12/19 04:13:56;;;;;;;12.98;4.85;;;;;;;5.00;100.00;99856.56;5053324;28;20048;-72
2021/12/19 04:16:42;;;;;;;9.77;4.63;;;;;;;5.03;100.00;99846.19;5053400;28;20080;-72
2021/12/19 04:19:28;;;;;;;9.88;3.83;;;;;;;4.98;100.00;99827.19;5024849;28;20052;-71
2021/12/19 04:22:13;;;;;;;8.65;3.55;;;;;;;4.94;100.00;99830.66;5038763;28;20423;-71
2021/12/19 04:24:57;;;;;;;6.43;3.30;;;;;;;4.98;100.00;99829.78;5053219;28;20041;-72
2021/12/19 04:27:41;;;;;;;8.98;3.05;;;;;;;4.97;100.00;99832.34;5038509;28;20073;-72
2021/12/19 04:30:27;;;;;;;12.77;3.03;;;;;;;4.92;100.00;99838.44;5053165;28;20362;-72
2021/12/19 04:33:12;;;;;;;4.90;3.45;;;;;;;4.87;100.00;99840.16;5052522;28;20497;-71
2021/12/19 04:36:00;;;;;;;8.98;3.35;;;;;;;4.85;100.00;99836.72;5052284;28;20037;-72
2021/12/19 04:39:35;;;;;;;12.43;3.85;;;;;;;4.93;100.00;99847.06;5053014;28;20105;-72
2021/12/19 04:50:56;;;;;;;6.75;3.50;;;;;;;4.83;100.00;99819.41;5052997;28;20045;-72
2021/12/19 04:54:14;;;;;;;8.32;3.42;;;;;;;4.88;100.00;99830.66;5052804;28;20041;-72
2021/12/19 05:05:27;;;;;;;10.55;3.03;;;;;;;4.87;100.00;99829.75;5052944;28;20037;-72
2021/12/19 05:14:22;;;;;;;8.50;3.57;;;;;;;4.75;100.00;99815.97;5052017;28;20046;-72
2021/12/19 05:17:14;;;;;;;11.75;3.83;;;;;;;4.92;100.00;99835.84;5051766;28;20044;-71
2021/12/19 05:20:11;;;;;;;15.40;4.35;;;;;;;4.79;100.00;99831.53;5052502;28;20119;-72
2021/12/19 05:23:03;;;;;;;8.40;3.22;;;;;;;4.85;100.00;99830.66;5047897;28;20045;-72
2021/12/19 05:25:47;;;;;;;10.82;3.63;;;;;;;4.78;100.00;99844.53;5032467;28;20049;-72
2021/12/19 05:28:32;;;;;;;13.35;4.30;;;;;;;4.81;100.00;99839.28;5036984;28;20105;-72
2021/12/19 05:31:18;;;;;;;8.70;4.03;;;;;;;4.80;100.00;99837.56;5052405;28;20046;-72
2021/12/19 05:34:03;;;;;;;10.23;3.33;;;;;;;4.81;100.00;99822.03;5051650;28;20045;-72
2021/12/19 05:45:57;;;;;;;;;;;;;;;4.75;100.00;99829.81;5051919;28;20351;-72
2021/12/19 05:48:41;;;;;;;9.95;2.83;;;;;;;4.67;100.00;99823.75;5051543;28;20230;-72
2021/12/19 05:51:26;;;;;;;8.93;2.38;;;;;;;4.75;100.00;99834.13;5052132;28;20037;-72
2021/12/19 05:54:10;;;;;;;7.90;2.20;;;;;;;4.72;100.00;99822.03;5051453;28;20041;-72
2021/12/19 05:56:54;;;;;;;11.52;2.70;;;;;;;4.73;100.00;99823.75;5051904;28;20439;-72
2021/12/19 05:59:38;;;;;;;7.63;2.80;;;;;;;4.72;100.00;99810.78;5052013;28;20105;-72
2021/12/19 06:02:23;;;;;;;12.85;5.32;;;;;;;4.64;100.00;99836.72;5051550;28;20045;-71
2021/12/19 06:05:09;;;;;;;9.40;3.45;;;;;;;4.73;100.00;99817.69;5054551;28;20444;-71
2021/12/19 06:07:54;;;;;;;44.70;22.52;;;;;;;4.79;100.00;99823.75;5054689;28;20037;-72
2021/12/19 06:10:38;;;;;;;63.30;23.13;;;;;;;4.80;100.00;99815.06;5055459;28;20064;-71
2021/12/19 06:13:24;;;;;;;14.43;3.67;;;;;;;4.77;100.00;99811.63;5055417;28;20442;-71
2021/12/19 06:16:08;;;;;;;10.05;2.88;;;;;;;4.72;100.00;99810.78;5054772;28;20041;-72
2021/12/19 06:18:52;;;;;;;4.97;1.80;;;;;;;4.73;100.00;99809.91;5054549;28;20048;-72
2021/12/19 06:21:37;;;;;;;10.48;4.20;;;;;;;4.68;100.00;99800.41;5054537;28;20041;-72
2021/12/19 06:24:21;;;;;;;9.13;3.92;;;;;;;4.69;100.00;99791.75;5055119;28;20052;-72
2021/12/19 06:27:06;;;;;;;14.98;6.68;;;;;;;4.63;100.00;99801.28;5054327;28;20041;-72
2021/12/19 06:29:50;;;;;;;9.75;2.88;;;;;;;4.62;100.00;99813.38;5055018;28;20045;-72
2021/12/19 06:32:34;;;;;;;8.35;3.38;;;;;;;4.66;100.00;99809.91;5054364;28;20127;-72
2021/12/19 06:35:19;;;;;;;7.03;2.90;;;;;;;4.59;100.00;99797.81;5054981;28;20041;-71
2021/12/19 06:38:03;;;;;;;8.50;2.88;;;;;;;4.62;100.00;99807.34;5054821;28;20397;-72
2021/12/19 06:40:48;;;;;;;6.63;3.10;;;;;;;4.60;100.00;99804.72;5054825;28;20041;-72
2021/12/19 06:43:33;;;;;;;6.65;3.22;;;;;;;4.57;100.00;99802.13;5054797;28;20355;-71
2021/12/19 06:46:18;;;;;;;7.85;2.90;;;;;;;4.63;100.00;99807.31;5053938;28;20049;-72
2021/12/19 06:49:03;;;;;;;7.75;3.30;;;;;;;4.61;100.00;99811.63;5054022;28;20120;-72
2021/12/19 06:51:47;;;;;;;8.25;1.98;;;;;;;4.55;100.00;99816.84;5054738;28;20040;-71
2021/12/19 06:54:31;;;;;;;6.90;2.35;;;;;;;4.57;100.00;99809.91;5053926;28;20045;-72
2021/12/19 06:57:16;;;;;;;6.03;2.40;;;;;;;4.51;100.00;99796.94;5054519;28;20044;-72
2021/12/19 07:00:00;;;;;;;8.05;2.33;;;;;;;4.52;100.00;99788.31;5053639;28;20049;-72
2021/12/19 07:02:45;;;;;;;7.95;2.15;;;;;;;4.50;100.00;99784.84;5054524;28;20494;-72
2021/12/19 07:05:29;;;;;;;37.65;16.40;;;;;;;4.45;100.00;99787.47;5054501;28;20037;-71
2021/12/19 07:08:13;;;;;;;24.42;13.05;;;;;;;4.46;100.00;99798.69;5054690;28;20052;-72
2021/12/19 07:10:57;;;;;;;9.77;6.18;;;;;;;4.44;100.00;99798.69;5053643;28;20328;-72
2021/12/19 07:13:42;;;;;;;5.75;2.90;;;;;;;4.37;100.00;99798.69;5053486;28;20427;-71
2021/12/19 07:16:26;;;;;;;8.18;3.05;;;;;;;4.42;100.00;99777.09;5054167;28;20425;-72
2021/12/19 07:19:10;;;;;;;8.27;2.63;;;;;;;4.50;100.00;99790.03;5054089;28;20044;-72
2021/12/19 07:21:55;;;;;;;6.45;3.00;;;;;;;4.39;100.00;99790.06;5053282;28;20049;-72
2021/12/19 07:24:39;;;;;;;8.55;3.42;;;;;;;4.51;100.00;99790.91;5053505;28;20503;-72
2021/12/19 07:27:23;;;;;;;5.22;2.00;;;;;;;4.34;100.00;99798.69;5053981;28;20045;-71
2021/12/19 07:30:09;;;;;;;6.18;2.50;;;;;;;4.31;100.00;99788.31;5053587;28;20041;-72
2021/12/19 07:32:54;;;;;;;8.15;2.22;;;;;;;4.36;100.00;99789.19;5054089;28;20427;-72
2021/12/19 07:35:42;;;;;;;4.55;2.15;;;;;;;4.29;100.00;99782.25;5039252;28;20375;-71
2021/12/19 07:38:35;;;;;;;10.15;2.50;;;;;;;4.26;100.00;99780.56;5053977;28;20098;-72
2021/12/19 07:41:20;;;;;;;7.80;3.00;;;;;;;4.29;100.00;99777.06;5052964;28;20422;-72
2021/12/19 07:44:04;;;;;;;122.05;66.28;;;;;;;4.30;100.00;99776.22;5052378;28;20041;-72
2021/12/19 07:46:49;;;;;;;13.70;8.88;;;;;;;4.22;100.00;99777.09;5053605;28;20053;-72
2021/12/19 07:49:34;;;;;;;225.95;124.35;;;;;;;4.20;100.00;99783.13;5053744;28;20047;-72
2021/12/19 07:52:18;;;;;;;46.85;35.42;;;;;;;4.18;100.00;99764.13;5053938;28;20041;-72
2021/12/19 07:55:04;;;;;;;15.85;9.32;;;;;;;4.17;100.00;99747.69;5053493;28;20466;-72
2021/12/19 07:57:49;;;;;;;31.35;23.17;;;;;;;4.25;100.00;99760.66;5052903;28;20041;-72
2021/12/19 08:00:34;;;;;;;53.67;40.30;;;;;;;4.33;100.00;99753.75;5052749;28;20049;-72
2021/12/19 08:03:19;;;;;;;44.60;32.78;;;;;;;4.25;100.00;99752.00;5052844;28;20324;-72
2021/12/19 08:06:03;;;;;;;79.82;62.58;;;;;;;4.22;100.00;99758.94;5053489;28;20065;-72
2021/12/19 08:08:51;;;;;;;286.88;93.13;;;;;;;4.24;100.00;99758.06;5052872;28;20346;-71
2021/12/19 08:11:40;;;;;;;33.05;19.05;;;;;;;4.32;100.00;99738.19;5053291;28;20061;-72
2021/12/19 08:14:25;;;;;;;56.17;40.33;;;;;;;4.16;100.00;99751.16;5052655;28;20040;-72
2021/12/19 08:17:09;;;;;;;129.10;44.85;;;;;;;4.09;100.00;99762.38;5053515;28;20044;-72
2021/12/19 08:19:54;;;;;;;12.70;6.63;;;;;;;4.12;100.00;99749.41;5053328;28;20037;-72
2021/12/19 08:22:38;;;;;;;48.40;16.55;;;;;;;4.09;100.00;99748.56;5053582;28;20492;-71
2021/12/19 08:25:24;;;;;;;157.68;59.30;;;;;;;4.07;100.00;99751.16;5053593;28;20048;-72
2021/12/19 08:28:09;;;;;;;65.43;24.08;;;;;;;4.07;100.00;99756.34;5038795;28;20037;-72
2021/12/19 08:30:53;;;;;;;63.38;23.25;;;;;;;4.07;100.00;99753.75;5053629;28;20040;-72
2021/12/19 08:33:38;;;;;;;65.03;25.27;;;;;;;3.98;100.00;99757.19;5053064;28;20052;-72
2021/12/19 08:36:22;;;;;;;83.00;32.88;;;;;;;3.97;100.00;99747.69;5053221;28;20041;-72
2021/12/19 08:39:08;;;;;;;26.15;14.07;;;;;;;3.96;100.00;99753.75;5053280;28;20056;-72
2021/12/19 08:41:52;;;;;;;27.15;10.77;;;;;;;4.06;100.00;99752.00;5038896;28;20045;-72
2021/12/19 08:44:38;;;;;;;56.72;27.02;;;;;;;3.99;100.00;99753.72;5053384;28;20432;-72
2021/12/19 08:47:22;;;;;;;46.67;22.35;;;;;;;3.97;100.00;99754.63;5052373;28;20045;-72
2021/12/19 08:50:08;;;;;;;26.63;16.10;;;;;;;3.92;100.00;99756.31;5052358;28;20090;-72
2021/12/19 08:52:52;;;;;;;30.00;17.92;;;;;;;3.92;100.00;99756.31;5052448;28;20033;-72
2021/12/19 08:55:36;;;;;;;14.32;9.35;;;;;;;4.00;100.00;99765.00;5052950;28;20041;-73
2021/12/19 08:58:21;;;;;;;13.32;7.85;;;;;;;4.03;100.00;99762.41;5051887;28;20098;-73
2021/12/19 09:01:06;;;;;;;23.23;14.02;;;;;;;3.90;100.00;99753.75;5053070;28;20048;-73
2021/12/19 09:03:51;;;;;;;18.52;10.48;;;;;;;3.96;100.00;99753.75;5052330;28;20074;-72
2021/12/19 09:06:35;;;;;;;15.07;8.35;;;;;;;3.93;100.00;99752.84;5051723;28;20064;-73
2021/12/19 09:09:20;;;;;;;15.93;10.13;;;;;;;3.95;100.00;99764.97;5036066;28;20033;-73
2021/12/19 09:12:08;;;;;;;11.60;5.53;;;;;;;3.92;100.00;99764.09;5050134;28;20045;-73
2021/12/19 09:14:52;;;;;;;15.07;12.23;;;;;;;4.01;100.00;99763.25;5037788;28;20102;-73
2021/12/19 09:17:37;;;;;;;19.83;14.35;;;;;;;3.95;100.00;99759.78;5037286;28;20037;-72
2021/12/19 09:20:21;;;;;;;35.50;20.10;;;;;;;3.91;100.00;99758.06;5051304;28;20044;-73
2021/12/19 09:23:06;;;;;;;94.93;41.92;;;;;;;3.87;100.00;99752.88;5052693;28;20061;-73
2021/12/19 09:25:50;;;;;;;17.77;13.60;;;;;;;3.92;100.00;99756.31;5051100;28;20051;-73
2021/12/19 09:28:34;;;;;;;24.83;19.10;;;;;;;3.85;100.00;99752.00;5050237;28;20037;-73
2021/12/19 09:31:21;;;;;;;27.95;18.98;;;;;;;3.96;100.00;99742.50;5050263;28;20041;-72
2021/12/19 09:34:07;;;;;;;64.53;41.95;;;;;;;3.95;100.00;99728.69;5051551;28;20125;-72
2021/12/19 09:36:52;;;;;;;26.80;17.98;;;;;;;3.95;100.00;99736.47;5050785;28;20038;-72
2021/12/19 09:39:36;;;;;;;23.30;15.73;;;;;;;3.98;100.00;99733.00;5053979;28;20443;-73
2021/12/19 09:42:23;;;;;;;31.02;19.42;;;;;;;3.94;100.00;99729.56;5055717;28;20052;-73
2021/12/19 09:45:07;;;;;;;32.38;21.55;;;;;;;3.95;100.00;99730.41;5056175;28;20045;-72
2021/12/19 09:47:52;;;;;;;22.35;16.98;;;;;;;3.92;100.00;99725.22;5055220;28;20041;-72
2021/12/19 09:50:36;;;;;;;29.25;19.73;;;;;;;3.92;100.00;99712.28;5055157;28;20049;-72
2021/12/19 09:53:20;;;;;;;12.57;8.27;;;;;;;3.97;100.00;99706.22;5056069;28;20045;-73
2021/12/19 09:56:06;;;;;;;9.35;6.38;;;;;;;3.93;100.00;99707.09;5055920;28;20044;-73
2021/12/19 09:58:50;;;;;;;19.17;11.48;;;;;;;4.02;100.00;99706.22;5055001;28;20060;-73
2021/12/19 10:01:34;;;;;;;29.20;19.50;;;;;;;3.98;100.00;99696.72;5055584;28;20041;-73
2021/12/19 10:04:42;;;;;;;27.45;18.48;;;;;;;4.13;100.00;99704.50;5055876;28;20041;-73
2021/12/19 10:07:29;;;;;;;20.48;14.75;;;;;;;3.93;100.00;99675.13;5054943;28;20044;-73
2021/12/19 10:10:24;;;;;;;14.15;11.32;;;;;;;4.01;100.00;99688.09;5054594;28;20045;-73
2021/12/19 10:13:08;;;;;;;15.52;12.38;;;;;;;3.95;100.00;99692.41;5054997;28;20143;-72
2021/12/19 10:15:53;;;;;;;9.13;7.65;;;;;;;3.88;100.00;99682.91;5055083;28;20033;-72
2021/12/19 10:18:52;;;;;;;11.32;9.07;;;;;;;3.92;100.00;99676.00;5055179;28;20061;-73
2021/12/19 10:21:37;;;;;;;10.90;8.73;;;;;;;3.89;100.00;99660.44;5055049;28;20449;-72
2021/12/19 10:24:32;;;;;;;10.93;6.68;;;;;;;3.87;100.00;99667.38;5054355;28;20053;-73
2021/12/19 10:27:38;;;;;;;10.23;5.05;;;;;;;3.96;100.00;99656.97;5054581;28;20053;-73
2021/12/19 10:30:39;;;;;;;4.90;3.42;;;;;;;3.88;100.00;99653.53;5054957;28;20064;-72
2021/12/19 10:33:28;;;;;;;9.30;3.33;;;;;;;3.91;100.00;99650.94;5055404;28;20037;-72
2021/12/19 10:36:12;;;;;;;8.00;5.63;;;;;;;3.97;100.00;99644.03;5054213;28;20033;-72
2021/12/19 10:38:59;;;;;;;5.78;4.63;;;;;;;3.92;100.00;99639.72;5054587;28;20045;-73
2021/12/19 10:41:44;;;;;;;9.48;4.63;;;;;;;3.85;100.00;99631.09;5054850;28;20086;-73
2021/12/19 10:47:34;;;;;;;15.63;8.00;;;;;;;3.91;100.00;99628.50;5054700;28;20123;-72
2021/12/19 10:50:19;;;;;;;6.57;4.65;;;;;;;3.88;100.00;99615.53;5054650;28;20094;-73
2021/12/19 10:53:05;;;;;;;6.53;4.25;;;;;;;3.83;100.00;99614.66;5040331;28;20037;-73
2021/12/19 10:55:50;;;;;;;7.70;5.13;;;;;;;3.87;100.00;99598.28;5040317;28;20079;-72
2021/12/19 10:58:39;;;;;;;8.10;4.95;;;;;;;3.89;100.00;99587.88;5053896;28;20052;-73
2021/12/19 11:01:32;;;;;;;4.70;2.90;;;;;;;3.90;100.00;99597.38;5054658;28;20045;-72
2021/12/19 11:04:18;;;;;;;7.82;2.47;;;;;;;3.95;100.00;99588.75;5054528;28;20339;-73
2021/12/19 11:07:03;;;;;;;6.90;3.67;;;;;;;3.87;100.00;99581.88;5053813;28;20067;-73
2021/12/19 11:09:48;;;;;;;7.63;3.72;;;;;;;3.91;100.00;99575.81;5054332;28;20068;-73
2021/12/19 11:12:32;;;;;;;6.45;4.82;;;;;;;3.98;100.00;99572.31;5053855;28;20041;-72
2021/12/19 11:15:16;;;;;;;8.23;4.25;;;;;;;3.97;100.00;99579.25;5025640;28;20063;-73
2021/12/19 11:18:01;;;;;;;6.13;4.15;;;;;;;3.92;100.00;99574.94;5053231;28;20041;-72
2021/12/19 11:20:45;;;;;;;4.78;2.92;;;;;;;3.94;100.00;99568.88;5051595;28;20362;-73
2021/12/19 11:23:30;;;;;;;4.53;3.40;;;;;;;3.94;100.00;99560.25;5051593;28;20038;-73
2021/12/19 11:26:18;;;;;;;19.42;8.43;;;;;;;3.88;100.00;99555.09;5053021;28;20450;-72
2021/12/19 11:29:02;;;;;;;33.88;16.75;;;;;;;3.96;100.00;99561.09;5052169;28;20041;-73
2021/12/19 11:31:52;;;;;;;17.02;9.30;;;;;;;4.01;100.00;99569.72;5052103;28;20124;-72
2021/12/19 11:35:00;;;;;;;21.15;12.15;;;;;;;4.01;100.00;99561.09;5051802;28;20098;-73
2021/12/19 11:37:54;;;;;;;11.55;6.72;;;;;;;4.04;100.00;99550.72;5051018;28;20193;-73
2021/12/19 11:40:39;;;;;;;28.58;11.52;;;;;;;3.95;100.00;99555.06;5051265;28;20419;-73
2021/12/19 11:43:36;;;;;;;17.88;7.10;;;;;;;4.01;100.00;99545.56;5051927;28;20037;-73
2021/12/19 11:46:41;;;;;;;13.02;5.72;;;;;;;4.04;100.00;99541.22;5051791;28;20049;-73
2021/12/19 11:49:28;;;;;;;6.93;3.20;;;;;;;3.98;100.00;99539.50;5051665;28;20044;-73
2021/12/19 11:52:30;;;;;;;12.20;5.07;;;;;;;3.97;100.00;99537.78;5054185;28;20045;-73
2021/12/19 11:55:14;;;;;;;7.65;3.97;;;;;;;4.02;100.00;99537.75;5053640;28;20037;-73
2021/12/19 11:58:08;;;;;;;7.28;3.83;;;;;;;3.98;100.00;99523.09;5054059;28;20041;-72
2021/12/19 12:01:07;;;;;;;12.90;4.63;;;;;;;4.00;100.00;99526.56;5038248;28;20044;-73
2021/12/19 12:03:58;;;;;;;17.73;5.82;;;;;;;4.02;100.00;99510.97;5038784;28;20041;-73
2021/12/19 12:06:53;;;;;;;9.52;4.10;;;;;;;3.98;100.00;99511.00;5052784;28;20073;-73
2021/12/19 12:09:55;;;;;;;11.30;4.75;;;;;;;4.01;100.00;99504.09;5038876;28;20061;-73
2021/12/19 12:12:50;;;;;;;19.70;7.57;;;;;;;4.07;100.00;99504.06;5038930;28;20358;-72
2021/12/19 12:15:34;;;;;;;20.92;9.93;;;;;;;3.96;100.00;99494.59;5053340;28;20041;-72
2021/12/19 12:18:55;;;;;;;16.27;6.47;;;;;;;4.00;100.00;99492.84;5053557;28;20045;-73
2021/12/19 12:21:43;;;;;;;8.43;4.40;;;;;;;4.08;100.00;99501.44;5053701;28;20053;-72
2021/12/19 12:24:28;;;;;;;10.30;5.47;;;;;;;4.03;100.00;99491.97;5053371;28;20032;-72
2021/12/19 12:27:12;;;;;;;24.60;9.27;;;;;;;4.01;100.00;99478.16;5053123;28;20049;-73
2021/12/19 12:29:57;;;;;;;19.17;8.55;;;;;;;4.03;100.00;99471.22;5053590;28;20073;-72
2021/12/19 12:32:43;;;;;;;23.40;11.45;;;;;;;3.98;100.00;99476.44;5052279;28;20041;-72
2021/12/19 12:35:33;;;;;;;17.67;9.27;;;;;;;4.02;100.00;99466.91;5038771;28;20411;-73
2021/12/19 12:38:19;;;;;;;16.30;7.80;;;;;;;3.99;100.00;99463.47;5052839;28;20041;-72
2021/12/19 12:41:10;;;;;;;13.95;7.45;;;;;;;4.00;100.00;99443.63;5052063;28;20336;-73
2021/12/19 12:43:56;;;;;;;16.98;8.57;;;;;;;4.09;100.00;99447.88;5053384;28;20120;-73
2021/12/19 12:46:42;;;;;;;12.20;5.45;;;;;;;4.07;100.00;99445.31;5052196;28;20052;-73
2021/12/19 12:49:34;;;;;;;13.77;8.30;;;;;;;4.09;100.00;99437.50;5052312;28;20052;-73
2021/12/19 12:52:19;;;;;;;12.20;5.80;;;;;;;4.10;100.00;99444.44;5051954;28;20399;-73
2021/12/19 12:55:04;;;;;;;10.95;7.72;;;;;;;3.98;100.00;99433.25;5052433;28;20041;-73
2021/12/19 12:57:49;;;;;;;12.80;6.93;;;;;;;3.97;100.00;99428.94;5053067;28;20038;-72
2021/12/19 13:00:33;;;;;;;84.68;42.63;;;;;;;3.95;100.00;99438.44;5051823;28;20049;-72
2021/12/19 13:03:28;;;;;;;11.85;7.82;;;;;;;4.04;100.00;99434.94;5052424;28;20117;-72
2021/12/19 13:06:13;;;;;;;15.90;8.38;;;;;;;4.01;100.00;99441.88;5052827;28;20049;-72
2021/12/19 13:09:33;;;;;;;14.82;8.45;;;;;;;4.04;100.00;99432.38;5052084;28;20048;-72
2021/12/19 13:12:20;;;;;;;10.50;5.45;;;;;;;4.02;100.00;99428.91;5053083;28;20037;-72
2021/12/19 13:15:04;;;;;;;8.32;5.35;;;;;;;3.98;100.00;99425.47;5056357;28;20427;-72
2021/12/19 13:17:51;;;;;;;10.05;5.07;;;;;;;3.98;100.00;99422.03;5055863;28;20094;-72
2021/12/19 13:20:37;;;;;;;11.35;4.63;;;;;;;4.12;100.00;99407.25;5055979;28;20041;-72
2021/12/19 13:23:21;;;;;;;11.07;6.20;;;;;;;4.06;100.00;99409.88;5055919;28;20064;-72
2021/12/19 13:26:06;;;;;;;7.55;4.03;;;;;;;4.02;100.00;99402.97;5056345;28;20091;-72
2021/12/19 13:28:50;;;;;;;116.78;57.67;;;;;;;3.98;100.00;99403.88;5055892;28;20037;-73
2021/12/19 13:31:35;;;;;;;474.10;214.32;;;;;;;3.94;100.00;99407.38;5055600;28;20044;-72
2021/12/19 13:34:19;;;;;;;406.30;164.70;;;;;;;3.97;100.00;99403.03;5055098;28;20049;-72
2021/12/19 13:37:04;;;;;;;83.35;39.00;;;;;;;3.99;100.00;99395.22;5055186;28;20037;-72
2021/12/19 13:40:18;;;;;;;463.48;129.40;;;;;;;3.99;100.00;99390.03;5055243;28;20041;-72
2021/12/19 13:43:22;;;;;;;408.52;248.00;;;;;;;3.93;100.00;99383.19;5050361;28;20053;-72
2021/12/19 13:46:10;;;;;;;210.95;56.67;;;;;;;3.92;100.00;99383.19;5055613;28;20053;-73
2021/12/19 13:48:54;;;;;;;308.88;79.82;;;;;;;3.93;100.00;99388.38;5041030;28;20066;-72
2021/12/19 13:51:39;;;;;;;164.73;63.67;;;;;;;3.89;100.00;99378.00;5055642;28;20045;-72
2021/12/19 13:54:27;;;;;;;220.73;52.45;;;;;;;3.92;100.00;99385.75;5053687;28;20045;-73
2021/12/19 13:57:20;;;;;;;242.15;56.42;;;;;;;3.89;100.00;99378.84;5053650;28;20037;-73